RJOB

Details ICAO RJOB (OKJ)
Name OKAYAMA
Region Japan
Timezone Asia/Tokyo (UTC+9.0)
Plans Departing 24
Arriving 26
Stats Elevation 806 ft / 246 m (AMSL)
Location 34.756937° 133.855435°
Runways 1
Magnetic Variation 7.800° W
Sunrise 2018-06-24 19:53:46 UTC / 2018-06-25 04:53:46 Local
Sunset 2018-06-25 10:22:52 UTC / 2018-06-25 19:22:52 Local
Advertisement - Login to hide

Runways

ID Width Length Bearing (true) Bearing (mag) Surface Threshold Offset Overrun Length
07 150 ft / 46 m 9,835 ft / 2,998 m 59.10° 66.90° Asphalt 0 ft / 0 m 200 ft / 61 m
25 150 ft / 46 m 9,835 ft / 2,998 m 239.12° 246.92° Asphalt 0 ft / 0 m 200 ft / 61 m

Approach Navaids

Runway Type Ident Frequency Range Bearing (true) Bearing (mag) Slope Elevation
07 Localiser IOY 110.30 MHz 18 nm / 33 km 59.12° 66.92° - 806 ft / 246 m (AMSL)
07 Glidescope IOY 110.30 MHz 10 nm / 19 km 59.11° 66.91° 3.00° 806 ft / 246 m (AMSL)

Map

Weather


0- 5 10 15 20 25 30 35+ Temperature / ° C

Clouds and Precipitation
Forecast for 2018-06-25 00:00 UTC. Updated an hour ago

Ground ~20,000 ft ~40,000 ft Winds

METAR

RJOB 242200Z VRB01KT 5000 BR PRFG FEW000 21/19 Q1013

TAF

TAF RJOB 241709Z 2418/2600 13004KT 9999 FEW030 BECMG 2502/2504 17006KT BECMG 2509/2512 05005KT

Frequencies

Tower 126.20 MHz TWR
Approach 120.40 MHz TAKAMATSU APP
Tower 124.30 MHz TWR
Approach 121.20 MHz TAKAMATSU APP
Warning: Do not use this data for real-world aviation or navigation. No guarantee of current accuracy is given.